sensor_id;sensor_type;location;lat;lon;timestamp;P1;durP1;ratioP1;P2;durP2;ratioP2
11453;SDS011;5783;55.174;61.310;2022-09-09T00:08:04;3.30;;;2.40;;
11453;SDS011;5783;55.174;61.310;2022-09-09T00:10:36;2.43;;;2.13;;
11453;SDS011;5783;55.174;61.310;2022-09-09T00:13:28;2.63;;;2.23;;
11453;SDS011;5783;55.174;61.310;2022-09-09T00:19:06;2.23;;;2.00;;
11453;SDS011;5783;55.174;61.310;2022-09-09T00:21:38;2.47;;;2.27;;
11453;SDS011;5783;55.174;61.310;2022-09-09T00:27:02;2.37;;;2.17;;
11453;SDS011;5783;55.174;61.310;2022-09-09T00:29:54;2.40;;;2.20;;
11453;SDS011;5783;55.174;61.310;2022-09-09T00:32:27;2.50;;;2.30;;
11453;SDS011;5783;55.174;61.310;2022-09-09T00:37:31;2.70;;;2.10;;
11453;SDS011;5783;55.174;61.310;2022-09-09T00:40:02;2.90;;;2.23;;
11453;SDS011;5783;55.174;61.310;2022-09-09T00:57:23;2.20;;;2.00;;
11453;SDS011;5783;55.174;61.310;2022-09-09T01:26:43;2.10;;;1.93;;
11453;SDS011;5783;55.174;61.310;2022-09-09T01:29:15;2.30;;;2.10;;
11453;SDS011;5783;55.174;61.310;2022-09-09T01:34:53;2.30;;;2.10;;
11453;SDS011;5783;55.174;61.310;2022-09-09T01:37:22;2.10;;;1.90;;
11453;SDS011;5783;55.174;61.310;2022-09-09T01:39:52;2.37;;;2.07;;
11453;SDS011;5783;55.174;61.310;2022-09-09T01:42:21;2.73;;;2.00;;
11453;SDS011;5783;55.174;61.310;2022-09-09T01:44:51;2.30;;;2.10;;
11453;SDS011;5783;55.174;61.310;2022-09-09T01:47:21;2.50;;;2.20;;
11453;SDS011;5783;55.174;61.310;2022-09-09T01:49:50;2.30;;;2.10;;
11453;SDS011;5783;55.174;61.310;2022-09-09T01:52:20;2.30;;;2.10;;
11453;SDS011;5783;55.174;61.310;2022-09-09T01:54:49;2.00;;;1.80;;
11453;SDS011;5783;55.174;61.310;2022-09-09T02:00:10;2.63;;;2.07;;
11453;SDS011;5783;55.174;61.310;2022-09-09T02:05:47;2.37;;;2.17;;
11453;SDS011;5783;55.174;61.310;2022-09-09T02:07:48;2.70;;;2.20;;
11453;SDS011;5783;55.174;61.310;2022-09-09T02:13:10;2.30;;;2.10;;
11453;SDS011;5783;55.174;61.310;2022-09-09T02:21:59;2.20;;;2.00;;
11453;SDS011;5783;55.174;61.310;2022-09-09T02:24:30;2.60;;;2.10;;
11453;SDS011;5783;55.174;61.310;2022-09-09T02:27:02;2.47;;;2.00;;
11453;SDS011;5783;55.174;61.310;2022-09-09T02:29:36;2.40;;;2.20;;
11453;SDS011;5783;55.174;61.310;2022-09-09T02:32:09;2.20;;;2.00;;
11453;SDS011;5783;55.174;61.310;2022-09-09T02:37:50;2.30;;;2.07;;
11453;SDS011;5783;55.174;61.310;2022-09-09T02:40:21;2.67;;;2.20;;
11453;SDS011;5783;55.174;61.310;2022-09-09T02:42:51;2.27;;;2.07;;
11453;SDS011;5783;55.174;61.310;2022-09-09T02:59:20;2.10;;;1.90;;
11453;SDS011;5783;55.174;61.310;2022-09-09T03:01:50;1.90;;;1.70;;
11453;SDS011;5783;55.174;61.310;2022-09-09T03:04:19;2.30;;;1.90;;
11453;SDS011;5783;55.174;61.310;2022-09-09T03:06:50;1.80;;;1.70;;
11453;SDS011;5783;55.174;61.310;2022-09-09T03:09:19;2.30;;;2.00;;
11453;SDS011;5783;55.174;61.310;2022-09-09T03:11:48;2.20;;;2.00;;
11453;SDS011;5783;55.174;61.310;2022-09-09T03:14:18;1.87;;;1.67;;
11453;SDS011;5783;55.174;61.310;2022-09-09T03:16:49;2.73;;;1.80;;
11453;SDS011;5783;55.174;61.310;2022-09-09T03:19:18;2.13;;;1.97;;
11453;SDS011;5783;55.174;61.310;2022-09-09T03:21:48;2.47;;;2.10;;
11453;SDS011;5783;55.174;61.310;2022-09-09T03:24:17;3.20;;;2.00;;
11453;SDS011;5783;55.174;61.310;2022-09-09T03:26:47;2.30;;;2.00;;
11453;SDS011;5783;55.174;61.310;2022-09-09T03:29:17;2.17;;;1.97;;
11453;SDS011;5783;55.174;61.310;2022-09-09T03:31:46;2.50;;;2.10;;
11453;SDS011;5783;55.174;61.310;2022-09-09T03:34:16;2.17;;;1.97;;
11453;SDS011;5783;55.174;61.310;2022-09-09T03:36:45;2.40;;;2.00;;
11453;SDS011;5783;55.174;61.310;2022-09-09T03:39:15;2.17;;;1.97;;
11453;SDS011;5783;55.174;61.310;2022-09-09T03:41:44;2.23;;;1.93;;
11453;SDS011;5783;55.174;61.310;2022-09-09T03:44:14;2.67;;;2.00;;
11453;SDS011;5783;55.174;61.310;2022-09-09T03:46:43;3.10;;;1.90;;
11453;SDS011;5783;55.174;61.310;2022-09-09T03:49:12;2.37;;;2.00;;
11453;SDS011;5783;55.174;61.310;2022-09-09T03:51:42;2.20;;;2.00;;
11453;SDS011;5783;55.174;61.310;2022-09-09T03:54:11;2.00;;;1.80;;
11453;SDS011;5783;55.174;61.310;2022-09-09T03:56:40;1.90;;;1.80;;
11453;SDS011;5783;55.174;61.310;2022-09-09T03:59:10;2.47;;;1.83;;
11453;SDS011;5783;55.174;61.310;2022-09-09T04:01:40;1.93;;;1.73;;
11453;SDS011;5783;55.174;61.310;2022-09-09T04:04:09;2.57;;;1.90;;
11453;SDS011;5783;55.174;61.310;2022-09-09T04:06:38;2.00;;;1.80;;
11453;SDS011;5783;55.174;61.310;2022-09-09T04:09:07;2.30;;;2.10;;
11453;SDS011;5783;55.174;61.310;2022-09-09T04:11:36;2.03;;;1.83;;
11453;SDS011;5783;55.174;61.310;2022-09-09T04:14:05;2.20;;;1.90;;
11453;SDS011;5783;55.174;61.310;2022-09-09T04:16:35;2.30;;;1.83;;
11453;SDS011;5783;55.174;61.310;2022-09-09T04:19:04;2.20;;;2.00;;
11453;SDS011;5783;55.174;61.310;2022-09-09T04:21:33;3.40;;;2.20;;
11453;SDS011;5783;55.174;61.310;2022-09-09T04:24:03;2.10;;;1.83;;
11453;SDS011;5783;55.174;61.310;2022-09-09T04:26:32;2.57;;;2.00;;
11453;SDS011;5783;55.174;61.310;2022-09-09T04:29:03;2.30;;;2.00;;
11453;SDS011;5783;55.174;61.310;2022-09-09T04:31:33;2.30;;;2.10;;
11453;SDS011;5783;55.174;61.310;2022-09-09T04:34:05;2.17;;;1.97;;
11453;SDS011;5783;55.174;61.310;2022-09-09T04:36:34;2.30;;;2.10;;
11453;SDS011;5783;55.174;61.310;2022-09-09T04:39:23;2.10;;;1.90;;
11453;SDS011;5783;55.174;61.310;2022-09-09T04:41:52;2.17;;;1.90;;
11453;SDS011;5783;55.174;61.310;2022-09-09T04:44:21;3.67;;;2.40;;
11453;SDS011;5783;55.174;61.310;2022-09-09T04:46:50;2.60;;;2.10;;
11453;SDS011;5783;55.174;61.310;2022-09-09T04:49:20;2.33;;;2.00;;
11453;SDS011;5783;55.174;61.310;2022-09-09T04:51:49;3.93;;;2.27;;
11453;SDS011;5783;55.174;61.310;2022-09-09T04:54:18;2.53;;;2.10;;
11453;SDS011;5783;55.174;61.310;2022-09-09T04:56:49;3.07;;;2.40;;
11453;SDS011;5783;55.174;61.310;2022-09-09T04:59:18;3.73;;;2.07;;
11453;SDS011;5783;55.174;61.310;2022-09-09T05:01:48;2.47;;;2.00;;
11453;SDS011;5783;55.174;61.310;2022-09-09T05:04:17;3.03;;;2.17;;
11453;SDS011;5783;55.174;61.310;2022-09-09T05:06:46;3.23;;;2.70;;
11453;SDS011;5783;55.174;61.310;2022-09-09T05:09:16;6.10;;;2.73;;
11453;SDS011;5783;55.174;61.310;2022-09-09T05:11:45;3.13;;;2.80;;
11453;SDS011;5783;55.174;61.310;2022-09-09T05:14:15;3.63;;;2.90;;
11453;SDS011;5783;55.174;61.310;2022-09-09T05:19:33;4.50;;;3.30;;
11453;SDS011;5783;55.174;61.310;2022-09-09T05:22:02;4.70;;;3.77;;
11453;SDS011;5783;55.174;61.310;2022-09-09T05:24:31;5.60;;;4.43;;
11453;SDS011;5783;55.174;61.310;2022-09-09T05:27:02;7.77;;;3.90;;
11453;SDS011;5783;55.174;61.310;2022-09-09T05:29:32;6.13;;;4.13;;
11453;SDS011;5783;55.174;61.310;2022-09-09T05:32:01;4.30;;;3.53;;
11453;SDS011;5783;55.174;61.310;2022-09-09T05:34:31;4.70;;;3.60;;
11453;SDS011;5783;55.174;61.310;2022-09-09T05:37:00;3.63;;;3.10;;
11453;SDS011;5783;55.174;61.310;2022-09-09T05:39:30;4.17;;;3.13;;
11453;SDS011;5783;55.174;61.310;2022-09-09T05:42:00;5.00;;;3.00;;
11453;SDS011;5783;55.174;61.310;2022-09-09T05:44:30;4.57;;;3.00;;
11453;SDS011;5783;55.174;61.310;2022-09-09T05:46:59;5.03;;;3.03;;
11453;SDS011;5783;55.174;61.310;2022-09-09T05:49:29;4.43;;;3.13;;
11453;SDS011;5783;55.174;61.310;2022-09-09T05:51:58;5.63;;;3.03;;
11453;SDS011;5783;55.174;61.310;2022-09-09T05:54:29;4.80;;;2.93;;
11453;SDS011;5783;55.174;61.310;2022-09-09T05:56:58;4.80;;;3.10;;
11453;SDS011;5783;55.174;61.310;2022-09-09T05:59:27;3.93;;;3.07;;
11453;SDS011;5783;55.174;61.310;2022-09-09T06:01:58;3.90;;;3.10;;
11453;SDS011;5783;55.174;61.310;2022-09-09T06:04:27;4.43;;;2.67;;
11453;SDS011;5783;55.174;61.310;2022-09-09T06:06:56;4.57;;;3.03;;
11453;SDS011;5783;55.174;61.310;2022-09-09T06:09:25;3.50;;;2.73;;
11453;SDS011;5783;55.174;61.310;2022-09-09T06:11:56;4.20;;;2.83;;
11453;SDS011;5783;55.174;61.310;2022-09-09T06:14:25;4.70;;;3.20;;
11453;SDS011;5783;55.174;61.310;2022-09-09T06:16:54;5.17;;;3.00;;
11453;SDS011;5783;55.174;61.310;2022-09-09T06:19:23;5.63;;;2.97;;
11453;SDS011;5783;55.174;61.310;2022-09-09T06:21:52;3.57;;;2.80;;
11453;SDS011;5783;55.174;61.310;2022-09-09T06:24:21;3.53;;;3.00;;
11453;SDS011;5783;55.174;61.310;2022-09-09T06:26:51;3.60;;;2.93;;
11453;SDS011;5783;55.174;61.310;2022-09-09T06:29:20;5.43;;;3.30;;
11453;SDS011;5783;55.174;61.310;2022-09-09T06:31:49;4.23;;;3.23;;
11453;SDS011;5783;55.174;61.310;2022-09-09T06:34:18;4.90;;;3.30;;
11453;SDS011;5783;55.174;61.310;2022-09-09T06:36:49;4.07;;;3.03;;
11453;SDS011;5783;55.174;61.310;2022-09-09T06:39:18;4.50;;;3.23;;
11453;SDS011;5783;55.174;61.310;2022-09-09T06:41:47;3.47;;;2.87;;
11453;SDS011;5783;55.174;61.310;2022-09-09T06:44:18;7.07;;;3.20;;
11453;SDS011;5783;55.174;61.310;2022-09-09T06:46:48;3.77;;;2.90;;
11453;SDS011;5783;55.174;61.310;2022-09-09T06:49:18;3.47;;;2.80;;
11453;SDS011;5783;55.174;61.310;2022-09-09T06:51:49;3.17;;;2.63;;
11453;SDS011;5783;55.174;61.310;2022-09-09T06:54:18;6.37;;;2.83;;
11453;SDS011;5783;55.174;61.310;2022-09-09T06:56:48;5.07;;;2.90;;
11453;SDS011;5783;55.174;61.310;2022-09-09T06:59:18;3.23;;;2.60;;
11453;SDS011;5783;55.174;61.310;2022-09-09T07:01:50;4.57;;;2.97;;
11453;SDS011;5783;55.174;61.310;2022-09-09T07:04:20;3.13;;;2.80;;
11453;SDS011;5783;55.174;61.310;2022-09-09T07:06:49;5.60;;;2.83;;
11453;SDS011;5783;55.174;61.310;2022-09-09T07:09:18;3.30;;;2.70;;
11453;SDS011;5783;55.174;61.310;2022-09-09T07:11:50;3.43;;;2.67;;
11453;SDS011;5783;55.174;61.310;2022-09-09T07:14:20;2.90;;;2.63;;
11453;SDS011;5783;55.174;61.310;2022-09-09T07:16:49;3.73;;;2.80;;
11453;SDS011;5783;55.174;61.310;2022-09-09T07:19:18;3.10;;;2.80;;
11453;SDS011;5783;55.174;61.310;2022-09-09T07:21:47;3.13;;;2.80;;
11453;SDS011;5783;55.174;61.310;2022-09-09T07:24:16;3.67;;;2.70;;
11453;SDS011;5783;55.174;61.310;2022-09-09T07:26:46;4.77;;;2.87;;
11453;SDS011;5783;55.174;61.310;2022-09-09T07:29:15;3.03;;;2.73;;
11453;SDS011;5783;55.174;61.310;2022-09-09T07:31:44;3.60;;;2.70;;
11453;SDS011;5783;55.174;61.310;2022-09-09T07:34:14;3.00;;;2.40;;
11453;SDS011;5783;55.174;61.310;2022-09-09T07:36:44;2.90;;;2.60;;
11453;SDS011;5783;55.174;61.310;2022-09-09T07:39:14;3.13;;;2.70;;
11453;SDS011;5783;55.174;61.310;2022-09-09T07:41:44;2.93;;;2.63;;
11453;SDS011;5783;55.174;61.310;2022-09-09T07:44:17;4.40;;;2.40;;
11453;SDS011;5783;55.174;61.310;2022-09-09T07:46:48;2.40;;;2.10;;
11453;SDS011;5783;55.174;61.310;2022-09-09T07:49:18;2.63;;;2.40;;
11453;SDS011;5783;55.174;61.310;2022-09-09T07:51:50;3.40;;;2.50;;
11453;SDS011;5783;55.174;61.310;2022-09-09T07:54:19;2.80;;;2.30;;
11453;SDS011;5783;55.174;61.310;2022-09-09T07:56:50;3.30;;;2.30;;
11453;SDS011;5783;55.174;61.310;2022-09-09T07:59:20;3.50;;;2.80;;
11453;SDS011;5783;55.174;61.310;2022-09-09T08:01:50;5.60;;;2.70;;
11453;SDS011;5783;55.174;61.310;2022-09-09T08:04:20;4.63;;;2.60;;
11453;SDS011;5783;55.174;61.310;2022-09-09T08:06:53;3.73;;;2.53;;
11453;SDS011;5783;55.174;61.310;2022-09-09T08:09:42;4.03;;;2.60;;
11453;SDS011;5783;55.174;61.310;2022-09-09T08:12:12;4.13;;;2.50;;
11453;SDS011;5783;55.174;61.310;2022-09-09T08:14:42;3.37;;;2.80;;
11453;SDS011;5783;55.174;61.310;2022-09-09T08:20:00;4.67;;;2.83;;
11453;SDS011;5783;55.174;61.310;2022-09-09T08:22:30;4.13;;;3.00;;
11453;SDS011;5783;55.174;61.310;2022-09-09T08:25:00;3.77;;;2.90;;
11453;SDS011;5783;55.174;61.310;2022-09-09T08:27:31;4.43;;;3.03;;
11453;SDS011;5783;55.174;61.310;2022-09-09T08:30:01;3.17;;;2.60;;
11453;SDS011;5783;55.174;61.310;2022-09-09T08:32:31;6.13;;;2.80;;
11453;SDS011;5783;55.174;61.310;2022-09-09T08:35:01;2.73;;;2.53;;
11453;SDS011;5783;55.174;61.310;2022-09-09T08:37:30;3.67;;;2.60;;
11453;SDS011;5783;55.174;61.310;2022-09-09T08:39:59;3.10;;;2.67;;
11453;SDS011;5783;55.174;61.310;2022-09-09T08:45:23;2.93;;;2.60;;
11453;SDS011;5783;55.174;61.310;2022-09-09T08:48:13;4.53;;;3.03;;
11453;SDS011;5783;55.174;61.310;2022-09-09T08:51:01;3.60;;;2.67;;
11453;SDS011;5783;55.174;61.310;2022-09-09T08:56:23;3.77;;;2.60;;
11453;SDS011;5783;55.174;61.310;2022-09-09T08:58:54;5.10;;;3.27;;
11453;SDS011;5783;55.174;61.310;2022-09-09T09:12:47;4.97;;;2.77;;
11453;SDS011;5783;55.174;61.310;2022-09-09T09:15:18;3.73;;;2.97;;
11453;SDS011;5783;55.174;61.310;2022-09-09T09:17:49;8.07;;;5.40;;
11453;SDS011;5783;55.174;61.310;2022-09-09T09:20:20;7.80;;;4.13;;
11453;SDS011;5783;55.174;61.310;2022-09-09T09:23:09;5.00;;;3.80;;
11453;SDS011;5783;55.174;61.310;2022-09-09T09:25:41;5.87;;;3.60;;
11453;SDS011;5783;55.174;61.310;2022-09-09T09:28:13;3.70;;;3.23;;
11453;SDS011;5783;55.174;61.310;2022-09-09T09:36:58;3.67;;;2.80;;
11453;SDS011;5783;55.174;61.310;2022-09-09T09:44:55;3.47;;;2.60;;
11453;SDS011;5783;55.174;61.310;2022-09-09T09:47:25;3.30;;;2.77;;
11453;SDS011;5783;55.174;61.310;2022-09-09T09:49:55;3.47;;;2.40;;
11453;SDS011;5783;55.174;61.310;2022-09-09T09:55:03;3.80;;;2.27;;
11453;SDS011;5783;55.174;61.310;2022-09-09T09:57:33;2.93;;;2.57;;
11453;SDS011;5783;55.174;61.310;2022-09-09T10:00:12;3.00;;;2.70;;
11453;SDS011;5783;55.174;61.310;2022-09-09T10:02:55;3.03;;;2.73;;
11453;SDS011;5783;55.174;61.310;2022-09-09T10:05:25;3.20;;;2.50;;
11453;SDS011;5783;55.174;61.310;2022-09-09T10:13:53;9.13;;;3.40;;
11453;SDS011;5783;55.174;61.310;2022-09-09T10:19:04;6.83;;;3.00;;
11453;SDS011;5783;55.174;61.310;2022-09-09T10:36:44;4.77;;;2.50;;
11453;SDS011;5783;55.174;61.310;2022-09-09T10:42:25;3.30;;;2.27;;
11453;SDS011;5783;55.174;61.310;2022-09-09T10:53:49;4.23;;;2.10;;
11453;SDS011;5783;55.174;61.310;2022-09-09T11:00:05;2.90;;;2.30;;
11453;SDS011;5783;55.174;61.310;2022-09-09T11:02:36;3.47;;;2.20;;
11453;SDS011;5783;55.174;61.310;2022-09-09T11:14:00;2.87;;;2.20;;
11453;SDS011;5783;55.174;61.310;2022-09-09T11:16:50;3.07;;;2.20;;
11453;SDS011;5783;55.174;61.310;2022-09-09T11:21:54;3.50;;;2.50;;
11453;SDS011;5783;55.174;61.310;2022-09-09T11:44:55;3.50;;;2.90;;
11453;SDS011;5783;55.174;61.310;2022-09-09T11:47:26;3.20;;;2.60;;
11453;SDS011;5783;55.174;61.310;2022-09-09T11:52:48;2.87;;;2.40;;
11453;SDS011;5783;55.174;61.310;2022-09-09T12:00:58;4.33;;;2.50;;
11453;SDS011;5783;55.174;61.310;2022-09-09T12:06:24;2.47;;;2.20;;
11453;SDS011;5783;55.174;61.310;2022-09-09T12:17:44;2.30;;;2.10;;
11453;SDS011;5783;55.174;61.310;2022-09-09T12:20:18;2.57;;;2.20;;
11453;SDS011;5783;55.174;61.310;2022-09-09T12:41:05;2.30;;;2.10;;
11453;SDS011;5783;55.174;61.310;2022-09-09T12:43:36;2.30;;;2.00;;
11453;SDS011;5783;55.174;61.310;2022-09-09T12:48:59;2.67;;;2.00;;
11453;SDS011;5783;55.174;61.310;2022-09-09T12:51:29;2.30;;;2.00;;
11453;SDS011;5783;55.174;61.310;2022-09-09T12:54:00;4.20;;;2.10;;
11453;SDS011;5783;55.174;61.310;2022-09-09T12:56:31;2.30;;;2.10;;
11453;SDS011;5783;55.174;61.310;2022-09-09T12:59:01;4.07;;;2.07;;
11453;SDS011;5783;55.174;61.310;2022-09-09T13:01:31;2.37;;;1.90;;
11453;SDS011;5783;55.174;61.310;2022-09-09T13:04:01;2.30;;;2.10;;
11453;SDS011;5783;55.174;61.310;2022-09-09T13:06:31;3.07;;;2.20;;
11453;SDS011;5783;55.174;61.310;2022-09-09T13:09:01;2.17;;;1.90;;
11453;SDS011;5783;55.174;61.310;2022-09-09T13:14:25;2.53;;;2.00;;
11453;SDS011;5783;55.174;61.310;2022-09-09T13:19:45;3.23;;;1.90;;
11453;SDS011;5783;55.174;61.310;2022-09-09T13:31:01;2.60;;;2.00;;
11453;SDS011;5783;55.174;61.310;2022-09-09T13:33:04;2.47;;;1.93;;
11453;SDS011;5783;55.174;61.310;2022-09-09T13:35:35;2.53;;;2.00;;
11453;SDS011;5783;55.174;61.310;2022-09-09T13:38:27;3.83;;;2.40;;
11453;SDS011;5783;55.174;61.310;2022-09-09T13:40:58;3.00;;;1.90;;
11453;SDS011;5783;55.174;61.310;2022-09-09T13:43:49;2.63;;;1.93;;
11453;SDS011;5783;55.174;61.310;2022-09-09T13:51:44;3.33;;;2.00;;
11453;SDS011;5783;55.174;61.310;2022-09-09T13:54:17;3.83;;;2.30;;
11453;SDS011;5783;55.174;61.310;2022-09-09T13:56:48;2.70;;;2.10;;
11453;SDS011;5783;55.174;61.310;2022-09-09T13:59:18;2.70;;;2.17;;
11453;SDS011;5783;55.174;61.310;2022-09-09T14:01:49;2.63;;;2.20;;
11453;SDS011;5783;55.174;61.310;2022-09-09T14:04:19;4.00;;;2.30;;
11453;SDS011;5783;55.174;61.310;2022-09-09T14:06:49;6.73;;;2.47;;
11453;SDS011;5783;55.174;61.310;2022-09-09T14:09:19;5.60;;;2.80;;
11453;SDS011;5783;55.174;61.310;2022-09-09T14:11:48;7.70;;;2.90;;
11453;SDS011;5783;55.174;61.310;2022-09-09T14:14:17;6.90;;;2.90;;
11453;SDS011;5783;55.174;61.310;2022-09-09T14:16:46;6.93;;;2.90;;
11453;SDS011;5783;55.174;61.310;2022-09-09T14:19:15;6.87;;;3.07;;
11453;SDS011;5783;55.174;61.310;2022-09-09T14:21:44;8.40;;;3.40;;
11453;SDS011;5783;55.174;61.310;2022-09-09T14:24:14;5.10;;;2.87;;
11453;SDS011;5783;55.174;61.310;2022-09-09T14:26:43;12.63;;;2.90;;
11453;SDS011;5783;55.174;61.310;2022-09-09T14:29:13;7.37;;;3.07;;
11453;SDS011;5783;55.174;61.310;2022-09-09T14:31:43;6.87;;;3.13;;
11453;SDS011;5783;55.174;61.310;2022-09-09T14:34:12;9.17;;;3.10;;
11453;SDS011;5783;55.174;61.310;2022-09-09T14:36:41;7.97;;;2.87;;
11453;SDS011;5783;55.174;61.310;2022-09-09T14:39:11;6.13;;;2.67;;
11453;SDS011;5783;55.174;61.310;2022-09-09T14:41:41;6.00;;;2.90;;
11453;SDS011;5783;55.174;61.310;2022-09-09T14:44:11;9.27;;;3.00;;
11453;SDS011;5783;55.174;61.310;2022-09-09T14:46:41;6.90;;;2.70;;
11453;SDS011;5783;55.174;61.310;2022-09-09T14:49:11;5.40;;;2.53;;
11453;SDS011;5783;55.174;61.310;2022-09-09T14:51:40;4.43;;;2.60;;
11453;SDS011;5783;55.174;61.310;2022-09-09T14:54:09;5.73;;;2.60;;
11453;SDS011;5783;55.174;61.310;2022-09-09T14:56:38;3.10;;;2.60;;
11453;SDS011;5783;55.174;61.310;2022-09-09T14:59:07;4.27;;;2.60;;
11453;SDS011;5783;55.174;61.310;2022-09-09T15:01:36;6.03;;;2.57;;
11453;SDS011;5783;55.174;61.310;2022-09-09T15:04:05;3.50;;;2.27;;
11453;SDS011;5783;55.174;61.310;2022-09-09T15:09:07;4.67;;;2.60;;
11453;SDS011;5783;55.174;61.310;2022-09-09T15:11:37;2.83;;;2.00;;
11453;SDS011;5783;55.174;61.310;2022-09-09T15:14:07;4.97;;;2.50;;
11453;SDS011;5783;55.174;61.310;2022-09-09T15:16:39;3.67;;;2.40;;
11453;SDS011;5783;55.174;61.310;2022-09-09T15:19:09;3.07;;;2.30;;
11453;SDS011;5783;55.174;61.310;2022-09-09T15:21:38;3.83;;;2.20;;
11453;SDS011;5783;55.174;61.310;2022-09-09T15:24:07;3.73;;;2.70;;
11453;SDS011;5783;55.174;61.310;2022-09-09T15:26:36;3.97;;;2.30;;
11453;SDS011;5783;55.174;61.310;2022-09-09T15:29:06;4.03;;;2.40;;
11453;SDS011;5783;55.174;61.310;2022-09-09T15:31:35;3.53;;;2.20;;
11453;SDS011;5783;55.174;61.310;2022-09-09T15:34:05;3.43;;;2.13;;
11453;SDS011;5783;55.174;61.310;2022-09-09T15:36:54;2.80;;;2.50;;
11453;SDS011;5783;55.174;61.310;2022-09-09T15:39:25;2.67;;;2.40;;
11453;SDS011;5783;55.174;61.310;2022-09-09T15:41:55;3.43;;;2.43;;
11453;SDS011;5783;55.174;61.310;2022-09-09T15:44:26;2.67;;;2.20;;
11453;SDS011;5783;55.174;61.310;2022-09-09T15:46:55;4.77;;;2.23;;
11453;SDS011;5783;55.174;61.310;2022-09-09T15:49:25;3.23;;;2.33;;
11453;SDS011;5783;55.174;61.310;2022-09-09T15:54:31;4.20;;;2.70;;
11453;SDS011;5783;55.174;61.310;2022-09-09T15:57:01;4.30;;;2.57;;
11453;SDS011;5783;55.174;61.310;2022-09-09T15:59:32;5.43;;;2.63;;
11453;SDS011;5783;55.174;61.310;2022-09-09T16:02:01;4.50;;;2.70;;
11453;SDS011;5783;55.174;61.310;2022-09-09T16:04:30;2.90;;;2.60;;
11453;SDS011;5783;55.174;61.310;2022-09-09T16:07:01;4.30;;;2.50;;
11453;SDS011;5783;55.174;61.310;2022-09-09T16:09:32;3.20;;;2.30;;
11453;SDS011;5783;55.174;61.310;2022-09-09T16:12:03;4.40;;;2.90;;
11453;SDS011;5783;55.174;61.310;2022-09-09T16:14:33;4.80;;;2.90;;
11453;SDS011;5783;55.174;61.310;2022-09-09T16:17:05;4.37;;;2.90;;
11453;SDS011;5783;55.174;61.310;2022-09-09T16:19:34;5.37;;;2.97;;
11453;SDS011;5783;55.174;61.310;2022-09-09T16:22:04;4.57;;;2.90;;
11453;SDS011;5783;55.174;61.310;2022-09-09T16:24:34;4.67;;;3.10;;
11453;SDS011;5783;55.174;61.310;2022-09-09T16:27:04;4.90;;;2.90;;
11453;SDS011;5783;55.174;61.310;2022-09-09T16:29:33;4.43;;;3.20;;
11453;SDS011;5783;55.174;61.310;2022-09-09T16:32:02;5.60;;;3.20;;
11453;SDS011;5783;55.174;61.310;2022-09-09T16:34:31;5.67;;;3.13;;
11453;SDS011;5783;55.174;61.310;2022-09-09T16:37:01;5.17;;;3.13;;
11453;SDS011;5783;55.174;61.310;2022-09-09T16:39:30;5.00;;;3.00;;
11453;SDS011;5783;55.174;61.310;2022-09-09T16:41:59;4.63;;;3.27;;
11453;SDS011;5783;55.174;61.310;2022-09-09T16:44:30;4.80;;;3.00;;
11453;SDS011;5783;55.174;61.310;2022-09-09T16:46:59;4.97;;;2.90;;
11453;SDS011;5783;55.174;61.310;2022-09-09T16:49:28;5.33;;;3.10;;
11453;SDS011;5783;55.174;61.310;2022-09-09T16:51:59;3.20;;;2.77;;
11453;SDS011;5783;55.174;61.310;2022-09-09T16:54:28;5.50;;;3.07;;
11453;SDS011;5783;55.174;61.310;2022-09-09T16:56:58;5.40;;;3.23;;
11453;SDS011;5783;55.174;61.310;2022-09-09T16:59:28;4.40;;;2.97;;
11453;SDS011;5783;55.174;61.310;2022-09-09T17:01:57;3.50;;;2.83;;
11453;SDS011;5783;55.174;61.310;2022-09-09T17:04:27;3.20;;;2.63;;
11453;SDS011;5783;55.174;61.310;2022-09-09T17:06:56;4.20;;;2.87;;
11453;SDS011;5783;55.174;61.310;2022-09-09T17:09:26;5.97;;;2.97;;
11453;SDS011;5783;55.174;61.310;2022-09-09T17:11:57;4.00;;;2.90;;
11453;SDS011;5783;55.174;61.310;2022-09-09T17:14:26;3.50;;;2.50;;
11453;SDS011;5783;55.174;61.310;2022-09-09T17:16:57;3.60;;;2.80;;
11453;SDS011;5783;55.174;61.310;2022-09-09T17:19:26;3.77;;;2.90;;
11453;SDS011;5783;55.174;61.310;2022-09-09T17:21:55;4.87;;;2.80;;
11453;SDS011;5783;55.174;61.310;2022-09-09T17:24:26;3.93;;;3.17;;
11453;SDS011;5783;55.174;61.310;2022-09-09T17:26:56;3.70;;;2.90;;
11453;SDS011;5783;55.174;61.310;2022-09-09T17:29:25;4.03;;;3.40;;
11453;SDS011;5783;55.174;61.310;2022-09-09T17:31:55;5.53;;;3.00;;
11453;SDS011;5783;55.174;61.310;2022-09-09T17:34:24;4.17;;;3.00;;
11453;SDS011;5783;55.174;61.310;2022-09-09T17:36:53;3.97;;;2.93;;
11453;SDS011;5783;55.174;61.310;2022-09-09T17:39:22;3.10;;;2.67;;
11453;SDS011;5783;55.174;61.310;2022-09-09T17:41:51;3.83;;;2.90;;
11453;SDS011;5783;55.174;61.310;2022-09-09T17:44:21;4.00;;;3.00;;
11453;SDS011;5783;55.174;61.310;2022-09-09T17:46:50;4.60;;;2.83;;
11453;SDS011;5783;55.174;61.310;2022-09-09T17:49:21;3.47;;;3.00;;
11453;SDS011;5783;55.174;61.310;2022-09-09T17:51:50;5.10;;;3.03;;
11453;SDS011;5783;55.174;61.310;2022-09-09T17:54:21;4.17;;;3.00;;
11453;SDS011;5783;55.174;61.310;2022-09-09T17:56:51;5.53;;;3.57;;
11453;SDS011;5783;55.174;61.310;2022-09-09T17:59:20;4.10;;;3.30;;
11453;SDS011;5783;55.174;61.310;2022-09-09T18:01:50;5.53;;;3.23;;
11453;SDS011;5783;55.174;61.310;2022-09-09T18:04:20;5.73;;;3.40;;
11453;SDS011;5783;55.174;61.310;2022-09-09T18:09:22;5.10;;;3.20;;
11453;SDS011;5783;55.174;61.310;2022-09-09T18:11:55;6.07;;;3.37;;
11453;SDS011;5783;55.174;61.310;2022-09-09T18:14:27;4.07;;;3.20;;
11453;SDS011;5783;55.174;61.310;2022-09-09T18:16:58;4.80;;;3.37;;
11453;SDS011;5783;55.174;61.310;2022-09-09T18:19:30;5.20;;;3.60;;
11453;SDS011;5783;55.174;61.310;2022-09-09T18:22:02;5.90;;;3.40;;
11453;SDS011;5783;55.174;61.310;2022-09-09T18:24:33;4.93;;;3.40;;
11453;SDS011;5783;55.174;61.310;2022-09-09T18:27:03;4.97;;;3.37;;
11453;SDS011;5783;55.174;61.310;2022-09-09T18:29:32;4.27;;;3.03;;
11453;SDS011;5783;55.174;61.310;2022-09-09T18:32:01;6.60;;;3.37;;
11453;SDS011;5783;55.174;61.310;2022-09-09T18:34:30;5.03;;;3.53;;
11453;SDS011;5783;55.174;61.310;2022-09-09T18:37:00;5.53;;;3.50;;
11453;SDS011;5783;55.174;61.310;2022-09-09T18:39:29;8.47;;;3.70;;
11453;SDS011;5783;55.174;61.310;2022-09-09T18:42:00;4.93;;;3.47;;
11453;SDS011;5783;55.174;61.310;2022-09-09T18:44:32;6.07;;;3.60;;
11453;SDS011;5783;55.174;61.310;2022-09-09T18:47:01;5.20;;;3.47;;
11453;SDS011;5783;55.174;61.310;2022-09-09T18:49:32;5.60;;;3.63;;
11453;SDS011;5783;55.174;61.310;2022-09-09T18:52:03;4.40;;;3.23;;
11453;SDS011;5783;55.174;61.310;2022-09-09T18:54:33;4.50;;;3.47;;
11453;SDS011;5783;55.174;61.310;2022-09-09T18:57:02;6.37;;;3.50;;
11453;SDS011;5783;55.174;61.310;2022-09-09T18:59:31;5.43;;;3.17;;
11453;SDS011;5783;55.174;61.310;2022-09-09T19:02:01;5.90;;;3.63;;
11453;SDS011;5783;55.174;61.310;2022-09-09T19:04:30;7.33;;;3.73;;
11453;SDS011;5783;55.174;61.310;2022-09-09T19:06:59;4.73;;;3.20;;
11453;SDS011;5783;55.174;61.310;2022-09-09T19:09:29;3.90;;;3.30;;
11453;SDS011;5783;55.174;61.310;2022-09-09T19:12:01;4.67;;;3.47;;
11453;SDS011;5783;55.174;61.310;2022-09-09T19:14:32;5.17;;;3.63;;
11453;SDS011;5783;55.174;61.310;2022-09-09T19:17:01;5.87;;;3.87;;
11453;SDS011;5783;55.174;61.310;2022-09-09T19:19:31;4.93;;;3.60;;
11453;SDS011;5783;55.174;61.310;2022-09-09T19:22:01;6.47;;;3.90;;
11453;SDS011;5783;55.174;61.310;2022-09-09T19:24:32;4.53;;;3.53;;
11453;SDS011;5783;55.174;61.310;2022-09-09T19:27:04;4.23;;;3.60;;
11453;SDS011;5783;55.174;61.310;2022-09-09T19:29:34;5.23;;;3.80;;
11453;SDS011;5783;55.174;61.310;2022-09-09T19:32:04;4.63;;;3.77;;
11453;SDS011;5783;55.174;61.310;2022-09-09T19:34:36;4.83;;;3.50;;
11453;SDS011;5783;55.174;61.310;2022-09-09T19:37:05;6.47;;;3.43;;